createdAt,value
2022-12-14T00:04:14.695Z,97822.72
2022-12-14T00:09:18.434Z,97834.50
2022-12-14T00:14:23.405Z,97831.81
2022-12-14T00:19:27.197Z,97825.19
2022-12-14T00:24:31.145Z,97824.09
2022-12-14T00:29:36.200Z,97827.16
2022-12-14T00:34:39.660Z,97819.34
2022-12-14T00:39:43.307Z,97809.88
2022-12-14T00:44:48.431Z,97810.19
2022-12-14T00:49:52.156Z,97790.69
2022-12-14T00:54:55.573Z,97796.53
2022-12-14T01:00:00.626Z,97793.25
2022-12-14T01:05:04.186Z,97793.56
2022-12-14T01:10:09.175Z,97802.88
2022-12-14T01:15:14.152Z,97784.44
2022-12-14T01:20:17.880Z,97788.75
2022-12-14T01:25:21.441Z,97761.81
2022-12-14T01:30:26.722Z,97772.44
2022-12-14T01:35:30.121Z,97766.91
2022-12-14T01:40:33.774Z,97755.75
2022-12-14T01:45:38.757Z,97730.97
2022-12-14T01:50:47.703Z,97753.75
2022-12-14T01:55:55.815Z,97740.19
2022-12-14T02:01:03.477Z,97747.72
2022-12-14T02:06:10.558Z,97721.91
2022-12-14T02:11:14.394Z,97718.78
2022-12-14T02:16:19.557Z,97697.56
2022-12-14T02:21:37.266Z,97701.63
2022-12-14T02:27:03.231Z,97702.81
2022-12-14T02:32:19.263Z,97699.50
2022-12-14T02:37:28.304Z,97695.19
2022-12-14T02:42:42.682Z,97688.34
2022-12-14T02:47:55.658Z,97700.66
2022-12-14T02:53:09.722Z,97690.25
2022-12-14T02:58:18.057Z,97679.81
2022-12-14T03:03:23.196Z,97700.53
2022-12-14T03:08:29.406Z,97678.38
2022-12-14T03:13:37.515Z,97694.03
2022-12-14T03:18:48.774Z,97656.72
2022-12-14T03:23:56.835Z,97661.25
2022-12-14T03:29:07.040Z,97651.28
2022-12-14T03:34:17.078Z,97628.59
2022-12-14T03:39:25.320Z,97635.94
2022-12-14T03:44:41.872Z,97641.63
2022-12-14T03:50:01.700Z,97627.16
2022-12-14T03:55:19.454Z,97637.56
2022-12-14T04:00:25.907Z,97623.28
2022-12-14T04:05:41.710Z,97617.31
2022-12-14T04:11:11.062Z,97617.47
2022-12-14T04:16:37.600Z,97624.00
2022-12-14T04:21:46.295Z,97626.00
2022-12-14T04:26:56.369Z,97629.09
2022-12-14T04:32:09.779Z,97620.09
2022-12-14T04:37:18.504Z,97622.78
2022-12-14T04:42:26.203Z,97621.91
2022-12-14T04:47:35.139Z,97623.94
2022-12-14T04:52:46.847Z,97621.22
2022-12-14T04:57:55.153Z,97623.69
2022-12-14T05:03:19.337Z,97613.97
2022-12-14T05:08:35.670Z,97618.72
2022-12-14T05:13:46.046Z,97623.84
2022-12-14T05:18:52.936Z,97628.59
2022-12-14T05:23:58.566Z,97632.28
2022-12-14T05:29:02.440Z,97634.78
2022-12-14T05:34:06.353Z,97633.34
2022-12-14T05:39:11.500Z,97625.59
2022-12-14T05:44:15.233Z,97628.91
2022-12-14T05:49:18.921Z,97626.63
2022-12-14T05:54:23.879Z,97629.28
2022-12-14T05:59:27.575Z,97619.09
2022-12-14T06:04:31.141Z,97608.19
2022-12-14T06:09:36.295Z,97617.59
2022-12-14T06:14:39.934Z,97611.78
2022-12-14T06:19:49.526Z,97609.31
2022-12-14T06:24:55.221Z,97614.47
2022-12-14T06:29:58.885Z,97617.13
2022-12-14T06:35:02.385Z,97628.31
2022-12-14T06:40:09.631Z,97626.66
2022-12-14T06:45:13.173Z,97630.72
2022-12-14T06:50:16.705Z,97631.72
2022-12-14T06:55:22.011Z,97636.22
2022-12-14T07:00:26.466Z,97661.75
2022-12-14T07:05:30.039Z,97665.03
2022-12-14T07:10:35.551Z,97663.53
2022-12-14T07:15:39.714Z,97667.78
2022-12-14T07:20:45.040Z,97671.06
2022-12-14T07:25:49.845Z,97682.38
2022-12-14T07:30:57.256Z,97682.50
2022-12-14T07:36:05.678Z,97690.19
2022-12-14T07:41:16.486Z,97697.03
2022-12-14T07:46:23.996Z,97702.00
2022-12-14T07:51:30.538Z,97713.06
2022-12-14T07:56:37.658Z,97714.72
2022-12-14T08:01:42.813Z,97724.06
2022-12-14T08:06:47.448Z,97724.06
2022-12-14T08:11:52.472Z,97724.97
2022-12-14T08:16:55.911Z,97726.31
2022-12-14T08:21:59.856Z,97732.44
2022-12-14T08:27:04.721Z,97740.13
2022-12-14T08:32:07.981Z,97735.34
2022-12-14T08:37:11.524Z,97745.91
2022-12-14T08:42:16.445Z,97753.16
2022-12-14T08:47:19.842Z,97749.94
2022-12-14T08:52:23.274Z,97767.03
2022-12-14T08:57:28.125Z,97772.34
2022-12-14T09:02:31.467Z,97783.22
2022-12-14T09:07:34.956Z,97796.94
2022-12-14T09:12:39.920Z,97790.59
2022-12-14T09:17:43.523Z,97803.31
2022-12-14T09:22:47.240Z,97815.78
2022-12-14T09:27:52.386Z,97824.41
2022-12-14T09:32:56.428Z,97831.19
2022-12-14T09:38:00.233Z,97832.34
2022-12-14T09:43:07.307Z,97842.66
2022-12-14T09:48:19.603Z,97846.88
2022-12-14T09:53:25.085Z,97856.13
2022-12-14T09:58:32.631Z,97872.34
2022-12-14T10:03:53.075Z,97882.59
2022-12-14T10:09:05.551Z,97897.13
2022-12-14T10:14:18.655Z,97903.22
2022-12-14T10:19:34.455Z,97912.50
2022-12-14T10:24:42.175Z,97923.44
2022-12-14T10:29:50.846Z,97944.09
2022-12-14T10:34:54.281Z,97961.75
2022-12-14T10:40:24.674Z,97966.97
2022-12-14T10:45:43.229Z,97999.25
2022-12-14T10:50:54.931Z,98007.03
2022-12-14T10:56:03.456Z,98016.28
2022-12-14T11:01:14.549Z,98029.00
2022-12-14T11:06:21.015Z,98043.31
2022-12-14T11:11:26.119Z,98062.16
2022-12-14T11:16:37.628Z,98077.38
2022-12-14T11:21:41.395Z,98083.78
2022-12-14T11:26:45.463Z,98109.50
2022-12-14T11:31:53.832Z,98125.63
2022-12-14T11:36:57.522Z,98122.38
2022-12-14T11:42:03.171Z,98138.97
2022-12-14T11:47:16.015Z,98151.84
2022-12-14T11:52:21.382Z,98161.25
2022-12-14T11:57:28.845Z,98175.72
2022-12-14T12:02:36.676Z,98197.00
2022-12-14T12:07:59.641Z,98203.09
2022-12-14T12:13:05.848Z,98197.16
2022-12-14T12:18:18.465Z,98219.44
2022-12-14T12:23:27.253Z,98233.66
2022-12-14T12:28:34.200Z,98240.22
2022-12-14T12:33:47.815Z,98258.88
2022-12-14T12:39:02.131Z,98280.00
2022-12-14T12:44:20.699Z,98296.16
2022-12-14T12:49:25.676Z,98300.44
2022-12-14T12:54:33.258Z,98311.13
2022-12-14T12:59:40.340Z,98318.97
2022-12-14T13:04:52.456Z,98335.50
2022-12-14T13:10:05.764Z,98351.09
2022-12-14T13:15:20.903Z,98346.78
2022-12-14T13:20:29.898Z,98362.53
2022-12-14T13:25:41.847Z,98376.56
2022-12-14T13:30:55.520Z,98392.75
2022-12-14T13:36:25.774Z,98402.00
2022-12-14T13:41:36.545Z,98407.25
2022-12-14T13:46:40.462Z,98415.09
2022-12-14T13:51:50.203Z,98418.31
2022-12-14T13:57:04.451Z,98428.94
2022-12-14T14:02:28.480Z,98453.25
2022-12-14T14:07:52.054Z,98457.09
2022-12-14T14:12:55.548Z,98451.97
2022-12-14T14:18:08.492Z,98471.00
2022-12-14T14:23:53.819Z,98463.50
2022-12-14T14:29:24.126Z,98484.19
2022-12-14T14:34:46.354Z,98494.34
2022-12-14T14:40:13.311Z,98503.88
2022-12-14T14:45:34.292Z,98512.34
2022-12-14T14:50:40.356Z,98520.47
2022-12-14T15:01:27.852Z,98542.81
2022-12-14T15:06:34.119Z,98538.78
2022-12-14T15:11:45.932Z,98557.06
2022-12-14T15:16:53.799Z,98553.19
2022-12-14T15:22:00.937Z,98566.75
2022-12-14T15:27:12.055Z,98573.13
2022-12-14T15:32:20.067Z,98573.66
2022-12-14T15:37:30.220Z,98589.91
2022-12-14T15:42:33.832Z,98592.41
2022-12-14T15:47:38.801Z,98606.50
2022-12-14T15:52:42.619Z,98614.25
2022-12-14T15:57:46.302Z,98629.41
2022-12-14T16:02:51.602Z,98627.50
2022-12-14T16:07:58.049Z,98629.81
2022-12-14T16:13:05.500Z,98654.25
2022-12-14T16:18:15.055Z,98655.44
2022-12-14T16:23:28.948Z,98664.53
2022-12-14T16:28:34.419Z,98680.28
2022-12-14T16:33:41.485Z,98689.25
2022-12-14T16:38:59.813Z,98695.97
2022-12-14T16:44:05.914Z,98705.69
2022-12-14T16:49:22.153Z,98710.78
2022-12-14T16:54:29.788Z,98721.69
2022-12-14T16:59:41.034Z,98710.06
2022-12-14T17:04:46.273Z,98727.63
2022-12-14T17:09:49.668Z,98730.72
2022-12-14T17:14:53.807Z,98744.47
2022-12-14T17:19:59.252Z,98745.41
2022-12-14T17:25:02.853Z,98749.16
2022-12-14T17:30:08.825Z,98754.38
2022-12-14T17:35:18.074Z,98769.88
2022-12-14T17:40:21.875Z,98775.28
2022-12-14T17:45:27.538Z,98766.06
2022-12-14T17:50:32.468Z,98788.75
2022-12-14T17:55:36.096Z,98789.28
2022-12-14T18:00:57.184Z,98782.59
2022-12-14T18:06:02.433Z,98800.16
2022-12-14T18:11:13.321Z,98816.97
2022-12-14T18:16:19.749Z,98824.25
2022-12-14T18:21:26.702Z,98828.31
2022-12-14T18:26:30.645Z,98845.25
2022-12-14T18:31:38.269Z,98842.13
2022-12-14T18:36:43.333Z,98833.88
2022-12-14T18:41:47.075Z,98851.59
2022-12-14T18:46:50.776Z,98860.34
2022-12-14T18:51:55.775Z,98871.56
2022-12-14T18:56:59.479Z,98869.22
2022-12-14T19:02:03.471Z,98878.09
2022-12-14T19:07:08.491Z,98887.16
2022-12-14T19:12:12.703Z,98900.34
2022-12-14T19:17:16.199Z,98909.50
2022-12-14T19:22:25.289Z,98917.78
2022-12-14T19:28:11.085Z,98930.28
2022-12-14T19:32:53.060Z,98938.88
2022-12-14T19:37:57.948Z,98944.47
2022-12-14T19:43:01.422Z,98946.91
2022-12-14T19:48:08.815Z,98950.72
2022-12-14T19:53:23.187Z,98963.16
2022-12-14T19:58:28.410Z,98985.22
2022-12-14T20:03:32.417Z,98987.81
2022-12-14T20:08:38.479Z,99001.53
2022-12-14T20:13:42.050Z,99011.34
2022-12-14T20:18:45.965Z,99024.63
2022-12-14T20:23:51.401Z,99038.72
2022-12-14T20:28:57.454Z,99033.97
2022-12-14T20:34:02.404Z,99050.16
2022-12-14T20:39:08.287Z,99051.22
2022-12-14T20:44:14.046Z,99049.63
2022-12-14T20:49:19.805Z,99046.50
2022-12-14T20:54:24.710Z,99071.38
2022-12-14T20:59:28.243Z,99068.41
2022-12-14T21:18:29.554Z,99087.19
2022-12-14T21:23:33.456Z,99090.31
2022-12-14T21:28:36.976Z,99099.69
2022-12-14T21:33:48.024Z,99098.91
2022-12-14T21:38:55.165Z,99097.19
2022-12-14T21:44:00.837Z,99105.72
2022-12-14T21:49:06.885Z,99111.41
2022-12-14T21:54:22.749Z,99126.81
2022-12-14T21:59:28.248Z,99125.03
2022-12-14T22:04:39.328Z,99126.28
2022-12-14T22:09:43.574Z,99134.66
2022-12-14T22:14:53.584Z,99135.91
2022-12-14T22:19:59.576Z,99143.47
2022-12-14T22:25:03.792Z,99157.78
2022-12-14T22:30:09.553Z,99154.84
2022-12-14T22:35:14.647Z,99161.88
2022-12-14T22:40:18.597Z,99172.75
2022-12-14T22:45:22.215Z,99174.25
2022-12-14T22:50:27.258Z,99184.38
2022-12-14T22:55:34.738Z,99186.72
2022-12-14T23:00:38.497Z,99183.78
2022-12-14T23:05:43.553Z,99191.94
2022-12-14T23:11:04.162Z,99200.44
2022-12-14T23:16:25.917Z,99199.50
2022-12-14T23:21:48.053Z,99198.63
2022-12-14T23:27:09.936Z,99199.84
2022-12-14T23:32:30.890Z,99219.78
2022-12-14T23:37:53.086Z,99220.03
2022-12-14T23:43:13.890Z,99227.44
2022-12-14T23:48:34.681Z,99229.66
2022-12-14T23:53:57.168Z,99241.34
2022-12-14T23:59:20.167Z,99226.41
